createdAt,value
2022-11-03T00:01:40.809Z,3.88
2022-11-03T00:06:44.113Z,3.45
2022-11-03T00:11:47.921Z,3.65
2022-11-03T00:16:49.702Z,4.10
2022-11-03T00:21:52.602Z,3.33
2022-11-03T00:26:54.254Z,2.95
2022-11-03T00:31:55.955Z,2.80
2022-11-03T00:36:57.626Z,3.20
2022-11-03T00:41:59.270Z,3.03
2022-11-03T00:47:00.998Z,2.75
2022-11-03T00:52:02.672Z,3.20
2022-11-03T00:57:04.311Z,3.40
2022-11-03T01:02:06.037Z,3.10
2022-11-03T01:07:07.775Z,2.65
2022-11-03T01:12:15.627Z,3.35
2022-11-03T01:17:17.214Z,3.53
2022-11-03T01:22:19.797Z,3.53
2022-11-03T01:27:24.878Z,3.00
2022-11-03T01:32:26.577Z,3.88
2022-11-03T01:37:28.234Z,3.58
2022-11-03T01:42:29.949Z,2.92
2022-11-03T01:47:34.672Z,3.50
2022-11-03T01:52:52.614Z,3.70
2022-11-03T01:58:17.514Z,3.80
2022-11-03T02:03:21.440Z,3.60
2022-11-03T02:08:39.769Z,3.47
2022-11-03T02:13:41.395Z,3.30
2022-11-03T02:18:45.490Z,3.40
2022-11-03T02:24:17.741Z,3.55
2022-11-03T02:29:19.640Z,3.28
2022-11-03T02:34:39.792Z,3.40
2022-11-03T02:39:46.093Z,3.97
2022-11-03T02:44:48.950Z,3.60
2022-11-03T02:54:57.072Z,3.50
2022-11-03T03:00:07.025Z,4.30
2022-11-03T03:05:11.006Z,3.58
2022-11-03T03:10:17.471Z,3.25
2022-11-03T03:15:25.882Z,3.55
2022-11-03T03:20:53.702Z,3.20
2022-11-03T03:26:09.270Z,3.83
2022-11-03T03:31:14.239Z,3.85
2022-11-03T03:36:18.225Z,3.60
2022-11-03T03:41:22.276Z,4.07
2022-11-03T03:46:27.634Z,3.08
2022-11-03T03:51:31.240Z,4.10
2022-11-03T03:56:48.532Z,4.17
2022-11-03T04:01:50.211Z,3.20
2022-11-03T04:07:11.915Z,4.60
2022-11-03T04:12:32.443Z,3.40
2022-11-03T04:17:52.948Z,3.78
2022-11-03T04:22:54.674Z,3.30
2022-11-03T04:27:56.331Z,3.55
2022-11-03T04:32:58.050Z,3.88
2022-11-03T04:38:09.645Z,3.28
2022-11-03T04:43:15.083Z,3.35
2022-11-03T04:48:21.665Z,3.50
2022-11-03T04:53:23.530Z,2.85
2022-11-03T04:58:32.524Z,3.20
2022-11-03T05:03:36.144Z,3.63
2022-11-03T05:08:37.821Z,3.57
2022-11-03T05:13:39.461Z,3.90
2022-11-03T05:18:44.797Z,3.70
2022-11-03T05:23:54.554Z,4.30
2022-11-03T05:29:00.723Z,3.90
2022-11-03T05:34:12.072Z,3.25
2022-11-03T05:39:31.318Z,3.20
2022-11-03T05:44:40.702Z,3.83
2022-11-03T05:49:42.335Z,3.67
2022-11-03T05:54:45.114Z,3.55
2022-11-03T05:59:49.429Z,3.70
2022-11-03T06:09:53.632Z,3.85
2022-11-03T06:14:55.264Z,3.38
2022-11-03T06:19:59.959Z,3.67
2022-11-03T06:25:23.804Z,3.22
2022-11-03T06:30:34.502Z,3.70
2022-11-03T06:35:36.358Z,3.65
2022-11-03T06:40:38.866Z,3.72
2022-11-03T06:45:57.769Z,3.42
2022-11-03T06:51:00.066Z,3.50
2022-11-03T06:56:02.544Z,3.50
2022-11-03T07:01:15.190Z,3.35
2022-11-03T07:06:21.412Z,3.47
2022-11-03T07:11:28.352Z,3.88
2022-11-03T07:16:42.558Z,3.60
2022-11-03T07:21:56.949Z,3.75
2022-11-03T07:27:35.550Z,3.60
2022-11-03T07:32:37.417Z,3.42
2022-11-03T07:37:39.104Z,4.18
2022-11-03T07:42:40.720Z,2.97
2022-11-03T07:47:44.327Z,3.58
2022-11-03T07:52:46.009Z,3.50
2022-11-03T07:57:48.152Z,3.17
2022-11-03T08:03:00.303Z,2.90
2022-11-03T08:08:01.920Z,3.05
2022-11-03T08:13:03.921Z,3.65
2022-11-03T08:18:05.809Z,3.00
2022-11-03T08:28:29.603Z,3.47
2022-11-03T08:33:35.394Z,3.38
2022-11-03T08:38:37.229Z,3.10
2022-11-03T08:43:38.891Z,3.08
2022-11-03T08:48:40.534Z,3.47
2022-11-03T08:53:42.721Z,3.30
2022-11-03T08:58:44.683Z,3.17
2022-11-03T09:03:46.546Z,4.15
2022-11-03T09:14:09.950Z,3.10
2022-11-03T09:19:11.710Z,3.00
2022-11-03T09:24:13.426Z,3.08
2022-11-03T09:29:15.090Z,3.10
2022-11-03T09:34:16.881Z,3.28
2022-11-03T09:39:18.462Z,2.72
2022-11-03T09:44:20.772Z,3.40
2022-11-03T09:49:22.497Z,3.15
2022-11-03T09:54:24.537Z,2.47
2022-11-03T09:59:26.206Z,2.50
2022-11-03T10:04:29.323Z,2.33
2022-11-03T10:09:30.972Z,2.80
2022-11-03T10:14:32.587Z,2.70
2022-11-03T10:19:34.213Z,2.92
2022-11-03T10:24:35.896Z,2.83
2022-11-03T10:29:39.915Z,3.45
2022-11-03T10:34:42.914Z,3.08
2022-11-03T10:39:45.932Z,3.22
2022-11-03T10:44:48.371Z,3.70
2022-11-03T10:49:50.038Z,3.75
2022-11-03T10:54:54.581Z,3.10
2022-11-03T10:59:56.218Z,2.80
2022-11-03T11:05:00.788Z,3.13
2022-11-03T11:10:08.421Z,3.55
2022-11-03T11:15:41.022Z,3.53
2022-11-03T11:20:42.656Z,3.40
2022-11-03T11:26:14.120Z,3.35
2022-11-03T11:31:36.100Z,3.83
2022-11-03T11:36:39.864Z,3.15
2022-11-03T11:42:11.734Z,3.27
2022-11-03T11:47:31.806Z,3.00
2022-11-03T11:52:46.015Z,3.50
2022-11-03T11:57:47.926Z,3.17
2022-11-03T12:02:50.901Z,2.85
2022-11-03T12:07:52.547Z,3.58
2022-11-03T12:12:55.578Z,3.20
2022-11-03T12:17:58.566Z,3.38
2022-11-03T12:23:00.203Z,3.70
2022-11-03T12:28:01.985Z,3.47
2022-11-03T12:33:03.888Z,3.38
2022-11-03T12:38:05.872Z,3.38
2022-11-03T12:43:07.790Z,3.50
2022-11-03T12:48:09.768Z,4.15
2022-11-03T12:53:11.410Z,3.70
2022-11-03T12:58:13.104Z,3.80
2022-11-03T13:03:14.849Z,3.90
2022-11-03T13:13:23.614Z,4.00
2022-11-03T13:18:25.367Z,3.80
2022-11-03T13:23:27.095Z,3.60
2022-11-03T13:28:28.975Z,3.70
2022-11-03T13:33:30.628Z,3.67
2022-11-03T13:38:32.383Z,3.88
2022-11-03T13:43:35.068Z,4.00
2022-11-03T13:49:33.964Z,3.53
2022-11-03T13:59:28.082Z,3.65
2022-11-03T14:04:46.989Z,3.20
2022-11-03T14:09:48.714Z,3.33
2022-11-03T14:14:50.317Z,3.72
2022-11-03T14:20:02.530Z,3.38
2022-11-03T14:25:06.248Z,4.30
2022-11-03T14:30:08.430Z,3.70
2022-11-03T14:35:10.540Z,3.65
2022-11-03T14:40:34.275Z,3.90
2022-11-03T14:45:38.417Z,3.60
2022-11-03T14:50:43.431Z,4.15
2022-11-03T14:55:47.793Z,4.60
2022-11-03T15:05:55.572Z,4.22
2022-11-03T15:11:00.377Z,4.88
2022-11-03T15:16:02.089Z,4.85
2022-11-03T15:21:03.794Z,4.82
2022-11-03T15:26:05.640Z,4.55
2022-11-03T15:31:07.223Z,4.70
2022-11-03T15:36:09.162Z,5.53
2022-11-03T15:41:17.046Z,4.72
2022-11-03T15:46:20.309Z,4.40
2022-11-03T15:51:22.496Z,4.20
2022-11-03T15:56:24.138Z,4.47
2022-11-03T16:01:26.009Z,4.20
2022-11-03T16:06:53.870Z,4.50
2022-11-03T16:11:49.418Z,4.20
2022-11-03T16:16:51.462Z,4.35
2022-11-03T16:21:53.116Z,4.18
2022-11-03T16:26:54.823Z,4.13
2022-11-03T16:31:56.508Z,4.35
2022-11-03T16:36:58.330Z,4.15
2022-11-03T16:42:02.039Z,4.78
2022-11-03T16:47:03.780Z,4.30
2022-11-03T16:52:05.489Z,4.78
2022-11-03T16:57:08.292Z,4.13
2022-11-03T17:02:15.154Z,4.20
2022-11-03T17:07:18.055Z,4.35
2022-11-03T17:12:19.827Z,4.15
2022-11-03T17:17:21.605Z,3.97
2022-11-03T17:22:24.283Z,4.30
2022-11-03T17:27:32.922Z,4.15
2022-11-03T17:32:40.591Z,4.35
2022-11-03T17:37:42.468Z,4.20
2022-11-03T17:42:44.675Z,4.18
2022-11-03T17:47:46.606Z,4.10
2022-11-03T17:52:50.633Z,4.30
2022-11-03T17:57:52.317Z,3.75
2022-11-03T18:02:55.476Z,4.35
2022-11-03T18:07:59.099Z,4.32
2022-11-03T18:13:17.786Z,3.97
2022-11-03T18:18:34.317Z,3.97
2022-11-03T18:23:36.089Z,4.18
2022-11-03T18:28:37.774Z,4.35
2022-11-03T18:33:39.451Z,4.60
2022-11-03T18:38:43.231Z,4.03
2022-11-03T18:43:44.954Z,4.30
2022-11-03T18:48:46.558Z,4.40
2022-11-03T19:42:28.090Z,6.03
2022-11-03T19:47:34.778Z,6.68
2022-11-03T19:52:36.438Z,7.18
2022-11-03T19:57:38.085Z,7.20
2022-11-03T20:02:39.763Z,6.53
2022-11-03T20:07:43.159Z,6.88
2022-11-03T20:12:46.033Z,7.68
2022-11-03T20:17:48.757Z,8.25
2022-11-03T20:22:54.024Z,8.73
2022-11-03T20:27:57.196Z,6.88
2022-11-03T20:32:58.827Z,7.60
2022-11-03T20:38:01.596Z,7.10
2022-11-03T20:43:03.580Z,8.10
2022-11-03T20:48:11.569Z,7.63
2022-11-03T20:53:18.645Z,7.40
2022-11-03T20:58:22.467Z,7.55
2022-11-03T21:03:57.721Z,7.13
2022-11-03T21:08:52.122Z,7.75
2022-11-03T21:13:57.327Z,8.45
2022-11-03T21:19:19.526Z,8.15
2022-11-03T21:24:21.223Z,8.52
2022-11-03T21:29:33.123Z,9.32
2022-11-03T21:34:46.941Z,8.98
2022-11-03T21:39:48.584Z,8.82
2022-11-03T21:44:50.387Z,8.57
2022-11-03T21:49:55.131Z,8.82
2022-11-03T21:55:00.549Z,8.60
2022-11-03T22:00:02.156Z,8.90
2022-11-03T22:05:09.736Z,9.93
2022-11-03T22:10:12.619Z,9.13
2022-11-03T22:15:33.118Z,8.82
2022-11-03T22:20:54.771Z,8.52
2022-11-03T22:26:15.315Z,8.43
2022-11-03T22:31:35.763Z,7.30
2022-11-03T22:36:37.387Z,6.25
2022-11-03T22:42:01.941Z,6.38
2022-11-03T22:47:08.331Z,6.13
2022-11-03T22:52:10.870Z,5.20
2022-11-03T22:57:13.189Z,2.30
2022-11-03T23:02:15.113Z,2.50
2022-11-03T23:07:16.863Z,2.10
2022-11-03T23:12:18.470Z,1.00
2022-11-03T23:17:40.483Z,1.00
2022-11-03T23:22:42.315Z,1.00
2022-11-03T23:27:43.915Z,1.08
2022-11-03T23:32:45.510Z,1.02
2022-11-03T23:37:47.109Z,0.70
2022-11-03T23:42:48.739Z,0.80
2022-11-03T23:48:08.954Z,1.20
2022-11-03T23:53:10.840Z,0.90
2022-11-03T23:58:21.616Z,1.08
